createdAt,value
2022-12-19T00:02:52.385Z,4.07
2022-12-19T00:07:58.593Z,6.30
2022-12-19T00:13:05.161Z,1.90
2022-12-19T00:18:10.342Z,2.37
2022-12-19T00:23:15.445Z,2.23
2022-12-19T00:28:20.703Z,3.70
2022-12-19T00:33:26.757Z,2.90
2022-12-19T00:38:32.129Z,3.27
2022-12-19T00:43:37.433Z,2.63
2022-12-19T00:48:43.473Z,3.27
2022-12-19T00:53:49.839Z,4.33
2022-12-19T00:58:56.047Z,3.50
2022-12-19T01:04:27.806Z,3.97
2022-12-19T01:09:11.801Z,4.10
2022-12-19T01:14:22.551Z,4.03
2022-12-19T01:19:23.801Z,4.03
2022-12-19T01:24:28.880Z,2.10
2022-12-19T01:29:34.706Z,1.53
2022-12-19T01:34:41.123Z,4.30
2022-12-19T01:39:46.748Z,4.33
2022-12-19T01:45:06.684Z,4.27
2022-12-19T01:50:22.376Z,2.37
2022-12-19T01:55:28.786Z,3.33
2022-12-19T02:00:34.551Z,4.67
2022-12-19T02:05:41.015Z,3.40
2022-12-19T02:10:46.153Z,2.00
2022-12-19T02:15:54.233Z,2.80
2022-12-19T02:21:04.925Z,3.77
2022-12-19T02:26:37.491Z,3.60
2022-12-19T02:32:17.370Z,1.90
2022-12-19T02:37:28.244Z,1.40
2022-12-19T02:42:42.843Z,3.17
2022-12-19T02:47:48.612Z,2.77
2022-12-19T02:52:53.825Z,3.93
2022-12-19T02:58:16.929Z,3.03
2022-12-19T03:03:34.206Z,3.17
2022-12-19T03:08:42.454Z,2.60
2022-12-19T03:13:56.638Z,4.33
2022-12-19T03:19:03.089Z,4.53
2022-12-19T03:24:11.579Z,1.93
2022-12-19T03:29:22.578Z,1.77
2022-12-19T03:34:30.703Z,2.93
2022-12-19T03:39:36.483Z,2.37
2022-12-19T03:44:43.793Z,2.00
2022-12-19T03:49:49.698Z,1.90
2022-12-19T03:55:12.723Z,1.23
2022-12-19T04:00:20.017Z,2.90
2022-12-19T04:05:27.596Z,2.57
2022-12-19T04:10:35.754Z,2.97
2022-12-19T04:15:52.998Z,3.13
2022-12-19T04:21:04.078Z,1.27
2022-12-19T04:26:10.569Z,3.40
2022-12-19T04:31:17.474Z,1.77
2022-12-19T04:36:22.787Z,2.23
2022-12-19T04:41:27.863Z,1.87
2022-12-19T04:46:32.964Z,2.67
2022-12-19T04:51:37.945Z,3.03
2022-12-19T04:56:42.997Z,2.00
2022-12-19T05:01:48.254Z,4.77
2022-12-19T05:06:53.865Z,2.10
2022-12-19T05:11:59.068Z,1.03
2022-12-19T05:17:05.968Z,3.40
2022-12-19T05:22:11.237Z,2.77
2022-12-19T05:27:16.381Z,4.00
2022-12-19T05:32:21.732Z,3.00
2022-12-19T05:37:28.500Z,1.80
2022-12-19T05:42:33.715Z,2.57
2022-12-19T05:47:38.871Z,3.87
2022-12-19T05:52:44.836Z,2.40
2022-12-19T05:57:50.126Z,2.50
2022-12-19T06:02:55.367Z,4.10
2022-12-19T06:08:01.240Z,2.30
2022-12-19T06:13:06.387Z,1.00
2022-12-19T06:18:12.099Z,2.87
2022-12-19T06:23:18.698Z,3.90
2022-12-19T06:28:24.380Z,2.23
2022-12-19T06:33:31.382Z,3.80
2022-12-19T06:38:37.643Z,2.43
2022-12-19T06:43:43.099Z,0.57
2022-12-19T06:48:48.319Z,3.60
2022-12-19T06:53:53.845Z,1.63
2022-12-19T06:58:58.970Z,1.63
2022-12-19T07:04:04.198Z,3.57
2022-12-19T07:09:09.575Z,1.50
2022-12-19T07:14:15.584Z,2.83
2022-12-19T07:19:22.756Z,6.50
2022-12-19T07:24:28.216Z,1.40
2022-12-19T07:29:33.607Z,5.10
2022-12-19T07:34:38.787Z,3.00
2022-12-19T07:39:44.079Z,3.23
2022-12-19T07:44:49.308Z,3.83
2022-12-19T07:49:55.106Z,4.07
2022-12-19T07:55:00.360Z,2.93
2022-12-19T08:00:06.751Z,3.03
2022-12-19T08:05:12.454Z,4.67
2022-12-19T08:10:17.914Z,5.17
2022-12-19T08:15:23.166Z,1.90
2022-12-19T08:20:28.696Z,4.17
2022-12-19T08:25:33.819Z,2.57
2022-12-19T08:30:41.436Z,2.30
2022-12-19T08:35:46.794Z,1.80
2022-12-19T08:40:55.213Z,3.10
2022-12-19T08:46:00.881Z,2.63
2022-12-19T08:51:08.883Z,2.83
2022-12-19T08:56:19.434Z,4.27
2022-12-19T09:01:26.155Z,3.07
2022-12-19T09:06:32.491Z,3.00
2022-12-19T09:11:46.578Z,2.60
2022-12-19T09:16:48.382Z,0.93
2022-12-19T09:21:54.164Z,1.70
2022-12-19T09:26:59.389Z,4.33
2022-12-19T09:32:04.792Z,1.77
2022-12-19T09:37:17.230Z,1.73
2022-12-19T09:42:41.333Z,1.97
2022-12-19T09:47:49.441Z,4.17
2022-12-19T09:53:03.203Z,3.60
2022-12-19T09:58:26.747Z,2.80
2022-12-19T10:03:39.792Z,3.93
2022-12-19T10:09:38.624Z,1.77
2022-12-19T10:14:12.603Z,5.17
2022-12-19T10:19:24.513Z,4.00
2022-12-19T10:24:44.984Z,3.53
2022-12-19T10:30:06.897Z,4.10
2022-12-19T10:35:18.770Z,3.90
2022-12-19T10:40:35.801Z,1.23
2022-12-19T10:45:48.532Z,3.60
2022-12-19T10:50:57.312Z,2.67
2022-12-19T10:56:05.624Z,6.23
2022-12-19T11:01:26.419Z,3.10
2022-12-19T11:06:50.053Z,5.97
2022-12-19T11:16:40.565Z,3.83
2022-12-19T11:28:04.849Z,4.60
2022-12-19T11:29:42.536Z,5.83
2022-12-19T11:30:07.043Z,4.70
2022-12-19T11:33:19.319Z,4.80
2022-12-19T11:38:50.452Z,2.63
2022-12-19T11:44:03.314Z,2.53
2022-12-19T11:49:30.967Z,2.93
2022-12-19T11:54:39.875Z,4.43
2022-12-19T11:59:45.281Z,4.73
2022-12-19T12:05:11.433Z,2.67
2022-12-19T12:13:35.343Z,3.73
2022-12-19T12:26:08.444Z,1.80
2022-12-19T12:31:12.177Z,4.40
2022-12-19T12:32:06.049Z,4.43
2022-12-19T12:42:19.527Z,4.93
2022-12-19T12:47:27.462Z,3.43
2022-12-19T12:52:42.400Z,4.83
2022-12-19T12:57:47.674Z,5.87
2022-12-19T13:02:58.153Z,5.43
2022-12-19T13:08:22.894Z,9.03
2022-12-19T13:13:52.926Z,5.37
2022-12-19T13:19:10.277Z,3.33
2022-12-19T13:24:16.943Z,4.83
2022-12-19T13:29:30.479Z,4.67
2022-12-19T13:34:37.866Z,3.33
2022-12-19T13:40:12.966Z,6.03
2022-12-19T13:45:08.814Z,6.47
2022-12-19T13:50:23.202Z,5.10
2022-12-19T13:55:30.875Z,5.10
2022-12-19T14:00:40.147Z,4.17
2022-12-19T14:06:16.720Z,8.10
2022-12-19T14:11:27.640Z,5.53
2022-12-19T14:16:00.919Z,6.07
2022-12-19T14:22:10.460Z,8.87
2022-12-19T14:28:20.606Z,6.40
2022-12-19T14:32:23.971Z,3.13
2022-12-19T14:36:52.979Z,8.20
2022-12-19T14:43:56.814Z,6.50
2022-12-19T14:52:34.299Z,5.97
2022-12-19T14:54:35.866Z,5.47
2022-12-19T14:58:53.010Z,6.87
2022-12-19T15:03:08.129Z,6.57
2022-12-19T15:08:13.762Z,12.77
2022-12-19T15:14:58.410Z,4.37
2022-12-19T15:18:43.863Z,4.40
2022-12-19T15:23:49.278Z,4.17
2022-12-19T15:28:56.621Z,2.23
2022-12-19T15:34:40.211Z,3.63
2022-12-19T15:39:47.012Z,6.13
2022-12-19T15:44:56.055Z,9.00
2022-12-19T15:50:06.879Z,8.03
2022-12-19T15:55:17.542Z,7.23
2022-12-19T16:00:25.343Z,5.93
2022-12-19T16:05:30.661Z,3.53
2022-12-19T16:10:36.119Z,5.23
2022-12-19T16:15:41.297Z,7.30
2022-12-19T16:20:47.087Z,4.57
2022-12-19T16:25:53.497Z,5.00
2022-12-19T16:31:00.302Z,5.83
2022-12-19T16:36:07.231Z,4.50
2022-12-19T16:41:22.291Z,7.13
2022-12-19T16:46:29.858Z,4.97
2022-12-19T16:51:36.089Z,7.47
2022-12-19T16:56:45.192Z,4.70
2022-12-19T17:01:51.213Z,3.90
2022-12-19T17:06:57.911Z,6.63
2022-12-19T17:12:03.795Z,4.43
2022-12-19T17:17:11.945Z,5.77
2022-12-19T17:22:19.805Z,6.17
2022-12-19T17:27:26.484Z,3.67
2022-12-19T17:32:31.973Z,5.33
2022-12-19T17:37:37.364Z,3.77
2022-12-19T17:42:43.220Z,6.93
2022-12-19T17:47:49.224Z,6.83
2022-12-19T17:52:55.599Z,5.83
2022-12-19T17:58:00.943Z,6.27
2022-12-19T18:03:09.590Z,6.03
2022-12-19T18:08:23.624Z,8.43
2022-12-19T18:13:31.306Z,6.40
2022-12-19T18:18:37.277Z,3.03
2022-12-19T18:23:42.988Z,4.10
2022-12-19T18:28:48.227Z,5.27
2022-12-19T18:33:55.610Z,6.57
2022-12-19T18:39:00.877Z,5.97
2022-12-19T18:44:06.542Z,7.93
2022-12-19T18:49:16.937Z,9.50
2022-12-19T18:54:24.084Z,8.40
2022-12-19T18:59:29.378Z,6.03
2022-12-19T19:04:36.082Z,6.10
2022-12-19T19:09:41.723Z,4.93
2022-12-19T19:14:47.111Z,8.90
2022-12-19T19:19:54.096Z,7.03
2022-12-19T19:24:59.874Z,6.17
2022-12-19T19:30:06.233Z,7.00
2022-12-19T19:35:14.582Z,6.47
2022-12-19T19:40:20.900Z,4.77
2022-12-19T19:45:28.002Z,5.30
2022-12-19T19:50:34.008Z,9.23
2022-12-19T19:55:40.858Z,7.03
2022-12-19T20:00:48.202Z,7.20
2022-12-19T20:06:01.081Z,5.80
2022-12-19T20:11:11.380Z,5.30
2022-12-19T20:16:18.956Z,7.57
2022-12-19T20:21:24.980Z,7.17
2022-12-19T20:26:31.365Z,5.07
2022-12-19T20:31:36.633Z,7.33
2022-12-19T20:36:42.141Z,9.97
2022-12-19T20:41:50.207Z,6.27
2022-12-19T20:46:59.204Z,7.40
2022-12-19T20:52:06.697Z,4.77
2022-12-19T20:57:12.080Z,5.93
2022-12-19T21:02:17.774Z,6.43
2022-12-19T21:07:28.189Z,8.73
2022-12-19T21:12:56.220Z,11.87
2022-12-19T21:29:56.976Z,6.97
2022-12-19T21:35:15.206Z,8.00
2022-12-19T21:40:30.621Z,7.43
2022-12-19T21:57:22.541Z,9.30
2022-12-19T22:03:14.143Z,9.47
2022-12-19T22:32:24.314Z,8.57
2022-12-19T22:37:51.835Z,6.10
2022-12-19T22:42:59.647Z,5.10
2022-12-19T22:48:06.140Z,4.30
2022-12-19T22:53:13.016Z,6.33
2022-12-19T22:58:18.947Z,6.27
2022-12-19T23:03:24.562Z,5.97
2022-12-19T23:08:30.564Z,6.07
2022-12-19T23:13:36.164Z,7.33
2022-12-19T23:18:42.124Z,7.33
2022-12-19T23:23:50.313Z,6.53
2022-12-19T23:29:01.678Z,6.63
2022-12-19T23:34:07.221Z,6.30
2022-12-19T23:39:13.937Z,7.33
2022-12-19T23:44:19.505Z,6.53
2022-12-19T23:49:25.459Z,6.53
2022-12-19T23:54:31.364Z,6.20
2022-12-19T23:59:36.805Z,7.27
